CheckWX is a tool to help pilots better visualize weather data.  It is not intended as a substitute for an official pre-flight weather briefing.

15:08:23 UTC

N03 METAR
Cortland County-Chase Field Airport
Cortland, New York, USA
Current

33 mins ago

KN03 141435Z AUTO 04004KT 10SM OVC007 05/05 A2942 RMK AO2
Observed
Dec-14 @ 14:35 UTC
Wind
  • 040° at 4 KTS
Visibility
10 SM
Flight Rules
IFR
Cloud Levels
  • Overcast at 700' AGL
Temperature
C / 41°F
Dewpoint
C / 41°F
Humidity
100%
Altimeter
29.42" Hg
Pressure
996.32 hPa
Previous

53 mins ago

KN03 141415Z AUTO 00000KT 10SM OVC009 05/05 A2944 RMK AO2
Observed
Dec-14 @ 14:15 UTC
Visibility
10 SM
Flight Rules
IFR
Cloud Levels
  • Overcast at 900' AGL
Temperature
C / 41°F
Dewpoint
C / 41°F
Humidity
100%
Altimeter
29.44" Hg
Pressure
996.92 hPa
Previous

1 hour ago

KN03 141355Z AUTO 00000KT 4SM -DZ OVC009 03/03 A2945 RMK AO2
Observed
Dec-14 @ 13:55 UTC
Visibility
4 SM
Flight Rules
IFR
Conditions
Light Drizzle
Cloud Levels
  • Overcast at 900' AGL
Temperature
C / 37°F
Dewpoint
C / 37°F
Humidity
100%
Altimeter
29.45" Hg
Pressure
997.32 hPa